Time;durP1;ratioP1;P1;durP2;ratioP2;P2;SDS_P1;SDS_P2;PMS_P1;PMS_P2;Temp;Humidity;BMP_temperature;BMP_pressure;BME280_temperature;BME280_humidity;BME280_pressure;Samples;Min_cycle;Max_cycle;Signal;HPM_P1;HPM_P2
2023/07/17 00:01:42;;;;;;;;;;;;;;;23.70;64.23;92980.53;2051738;70;20055;-77
2023/07/17 00:04:07;;;;;;;;;;;;;;;23.68;64.38;92974.75;2051612;70;20180;-78
2023/07/17 00:06:32;;;;;;;;;;;;;;;23.61;64.31;92976.78;2051997;70;20058;-78
2023/07/17 00:08:58;;;;;;;;;;;;;;;23.68;63.28;92969.72;2052195;70;20074;-78
2023/07/17 00:11:23;;;;;;;;;;;;;;;23.65;63.13;92970.41;2051421;70;20170;-78
2023/07/17 00:13:49;;;;;;;;;;;;;;;23.69;62.70;92976.22;2051853;70;20090;-78
2023/07/17 00:16:14;;;;;;;;;;;;;;;23.76;62.97;92975.59;2048373;70;20495;-77
2023/07/17 00:18:40;;;;;;;;;;;;;;;23.58;62.85;92973.13;2048629;70;20051;-77
2023/07/17 00:21:05;;;;;;;;;;;;;;;23.57;64.09;92971.69;2048014;70;20225;-77
2023/07/17 00:23:31;;;;;;;;;;;;;;;23.61;62.71;92973.91;2048102;70;20823;-77
2023/07/17 00:25:57;;;;;;;;;;;;;;;23.45;63.61;92967.88;2048081;70;20059;-78
2023/07/17 00:28:23;;;;;;;;;;;;;;;23.47;64.43;92968.63;2047941;70;20484;-77
2023/07/17 00:30:50;;;;;;;;;;;;;;;23.53;64.05;92977.34;2047769;70;20055;-77
2023/07/17 00:33:15;;;;;;;;;;;;;;;23.55;64.08;92968.78;2050179;70;20142;-77
2023/07/17 00:35:41;;;;;;;;;;;;;;;23.49;63.67;92962.19;2047979;70;20142;-77
2023/07/17 00:38:06;;;;;;;;;;;;;;;23.46;63.79;92967.19;2048267;70;20063;-78
2023/07/17 00:40:32;;;;;;;;;;;;;;;23.48;63.17;92969.34;2048658;70;20135;-78
2023/07/17 00:42:58;;;;;;;;;;;;;;;22.96;64.54;92970.59;2047511;70;20118;-78
2023/07/17 00:45:25;;;;;;;;;;;;;;;23.07;64.41;92968.63;2050762;70;20098;-77
2023/07/17 00:47:51;;;;;;;;;;;;;;;23.08;64.15;92962.19;2050701;70;20507;-77
2023/07/17 00:50:16;;;;;;;;;;;;;;;23.01;65.00;92957.78;2050053;70;20087;-78
2023/07/17 00:52:42;;;;;;;;;;;;;;;23.05;64.85;92960.00;2047683;70;20483;-76
2023/07/17 00:55:09;;;;;;;;;;;;;;;23.09;65.05;92960.06;2048927;70;20260;-77
2023/07/17 00:57:35;;;;;;;;;;;;;;;22.90;65.66;92973.34;2047705;70;20228;-78
2023/07/17 01:00:01;;;;;;;;;;;;;;;22.89;65.84;92971.88;2049857;70;20062;-77
2023/07/17 01:02:27;;;;;;;;;;;;;;;22.86;65.99;92972.50;2047811;70;20482;-78
2023/07/17 01:04:53;;;;;;;;;;;;;;;22.88;65.75;92963.94;2046892;70;20146;-78
2023/07/17 01:07:19;;;;;;;;;;;;;;;22.76;65.85;92970.88;2046617;70;20146;-78
2023/07/17 01:09:44;;;;;;;;;;;;;;;22.64;66.13;92961.34;2048170;70;20422;-77
2023/07/17 01:12:10;;;;;;;;;;;;;;;22.76;64.61;92965.16;2047192;70;20115;-77
2023/07/17 01:14:35;;;;;;;;;;;;;;;22.68;65.85;92970.00;2047465;70;20055;-77
2023/07/17 01:17:02;;;;;;;;;;;;;;;22.61;66.00;92965.56;2049805;70;20073;-77
2023/07/17 01:19:29;;;;;;;;;;;;;;;22.63;65.78;92962.72;2050559;70;20047;-77
2023/07/17 01:21:58;;;;;;;;;;;;;;;22.55;66.54;92966.91;2049991;70;20058;-77
2023/07/17 01:24:25;;;;;;;;;;;;;;;22.52;66.22;92961.81;2047449;70;20059;-77
2023/07/17 01:26:50;;;;;;;;;;;;;;;22.63;65.48;92962.72;2048393;70;20059;-78
2023/07/17 01:29:15;;;;;;;;;;;;;;;22.64;65.71;92958.47;2048656;70;20051;-78
2023/07/17 01:31:42;;;;;;;;;;;;;;;22.60;65.49;92959.09;2047873;70;20493;-78
2023/07/17 01:34:10;;;;;;;;;;;;;;;22.33;66.16;92961.44;2049215;70;20062;-77
2023/07/17 01:36:36;;;;;;;;;;;;;;;22.52;65.59;92956.06;2047318;70;20060;-77
2023/07/17 01:39:02;;;;;;;;;;;;;;;22.45;66.71;92963.09;2049051;70;20050;-77
2023/07/17 01:41:28;;;;;;;;;;;;;;;22.43;66.92;92968.78;2048363;70;20051;-77
2023/07/17 01:43:56;;;;;;;;;;;;;;;22.53;65.94;92971.84;2048651;70;20070;-77
2023/07/17 01:46:22;;;;;;;;;;;;;;;22.58;66.35;92967.66;2047051;70;20047;-77
2023/07/17 01:48:47;;;;;;;;;;;;;;;22.39;65.06;92977.31;2049252;70;20421;-77
2023/07/17 01:51:13;;;;;;;;;;;;;;;22.21;65.70;92974.75;2047971;70;20139;-77
2023/07/17 01:53:38;;;;;;;;;;;;;;;22.47;65.35;92986.81;2047588;70;20121;-77
2023/07/17 01:56:04;;;;;;;;;;;;;;;22.40;66.89;92984.50;2048252;70;20062;-78
2023/07/17 01:58:29;;;;;;;;;;;;;;;22.45;67.08;92983.16;2047795;70;20063;-78
2023/07/17 02:00:55;;;;;;;;;;;;;;;22.50;66.95;92979.72;2049540;70;20059;-78
2023/07/17 02:03:21;;;;;;;;;;;;;;;22.55;66.08;92986.25;2048144;70;20497;-78
2023/07/17 02:05:47;;;;;;;;;;;;;;;22.57;65.41;92981.28;2048184;70;20411;-78
2023/07/17 02:08:12;;;;;;;;;;;;;;;22.52;65.82;92976.88;2049149;70;20141;-78
2023/07/17 02:10:44;;;;;;;;;;;;;;;22.63;64.29;92979.94;2050793;70;20043;-78
2023/07/17 02:13:09;;;;;;;;;;;;;;;22.63;64.54;92974.94;2048200;70;20055;-78
2023/07/17 02:15:35;;;;;;;;;;;;;;;22.61;64.42;92977.03;2048815;70;20058;-78
2023/07/17 02:18:01;;;;;;;;;;;;;;;22.53;65.16;92984.06;2050647;70;20124;-78
2023/07/17 02:20:27;;;;;;;;;;;;;;;22.64;64.89;92982.16;2048429;70;20087;-78
2023/07/17 02:22:53;;;;;;;;;;;;;;;22.54;65.93;92976.19;2048328;70;20498;-78
2023/07/17 02:25:19;;;;;;;;;;;;;;;22.50;66.03;92979.72;2051295;70;20047;-78
2023/07/17 02:27:46;;;;;;;;;;;;;;;22.48;66.14;92976.78;2049204;70;20047;-78
2023/07/17 02:30:12;;;;;;;;;;;;;;;22.48;66.33;92982.53;2048231;70;20463;-77
2023/07/17 02:32:37;;;;;;;;;;;;;;;22.56;65.99;92974.09;2051872;70;20060;-78
2023/07/17 02:35:04;;;;;;;;;;;;;;;22.60;66.29;92975.59;2052301;70;20460;-77
2023/07/17 02:37:29;;;;;;;;;;;;;;;22.59;66.09;92980.63;2052161;70;20074;-78
2023/07/17 02:39:55;;;;;;;;;;;;;;;22.74;64.99;92988.09;2050644;70;20632;-78
2023/07/17 02:42:20;;;;;;;;;;;;;;;22.67;65.43;92982.91;2052296;70;20046;-78
2023/07/17 02:44:46;;;;;;;;;;;;;;;22.70;65.68;92984.41;2055355;70;20471;-78
2023/07/17 02:47:12;;;;;;;;;;;;;;;22.76;64.71;92984.50;2048844;70;20058;-78
2023/07/17 02:49:38;;;;;;;;;;;;;;;22.72;66.06;92982.28;2049512;70;20054;-78
2023/07/17 02:52:03;;;;;;;;;;;;;;;22.71;65.70;92983.72;2054196;70;20503;-78
2023/07/17 02:54:29;;;;;;;;;;;;;;;22.76;66.01;92993.13;2049948;70;20137;-77
2023/07/17 02:56:56;;;;;;;;;;;;;;;22.63;65.86;92986.41;2052163;70;20055;-78
2023/07/17 02:59:21;;;;;;;;;;;;;;;22.71;66.10;92992.31;2051091;70;20053;-78
2023/07/17 03:01:48;;;;;;;;;;;;;;;22.65;66.56;92997.94;2050469;70;20054;-77
2023/07/17 03:04:14;;;;;;;;;;;;;;;22.71;65.60;92985.84;2049013;70;20047;-78
2023/07/17 03:06:40;;;;;;;;;;;;;;;22.61;66.01;92994.25;2052597;70;20418;-78
2023/07/17 03:09:06;;;;;;;;;;;;;;;22.63;65.52;92988.56;2048798;70;20053;-78
2023/07/17 03:11:32;;;;;;;;;;;;;;;22.67;66.53;92995.09;2052635;70;20051;-78
2023/07/17 03:13:58;;;;;;;;;;;;;;;22.71;65.71;92991.59;2053569;70;20062;-78
2023/07/17 03:16:23;;;;;;;;;;;;;;;22.39;66.75;92986.63;2051728;70;20153;-78
2023/07/17 03:18:50;;;;;;;;;;;;;;;22.65;65.62;92992.19;2053010;70;20062;-78
2023/07/17 03:21:17;;;;;;;;;;;;;;;22.58;66.33;92991.34;2051452;70;20061;-78
2023/07/17 03:23:42;;;;;;;;;;;;;;;22.65;66.25;92989.34;2046397;70;20051;-78
2023/07/17 03:26:08;;;;;;;;;;;;;;;22.72;65.83;92993.03;2048880;70;20163;-78
2023/07/17 03:28:34;;;;;;;;;;;;;;;22.72;65.18;92993.03;2048755;70;20058;-78
2023/07/17 03:31:00;;;;;;;;;;;;;;;22.69;65.45;92988.69;2050697;70;20063;-79
2023/07/17 03:33:26;;;;;;;;;;;;;;;22.73;64.83;92980.16;2051824;70;20145;-78
2023/07/17 03:35:55;;;;;;;;;;;;;;;22.73;64.99;92983.75;2052795;70;20121;-78
2023/07/17 03:38:22;;;;;;;;;;;;;;;22.63;66.87;92980.66;2048937;70;20071;-78
2023/07/17 03:40:48;;;;;;;;;;;;;;;22.67;66.33;92983.63;2049273;70;20047;-78
2023/07/17 03:43:14;;;;;;;;;;;;;;;22.69;66.97;92982.97;2050782;70;20086;-77
2023/07/17 03:45:40;;;;;;;;;;;;;;;22.65;66.80;92980.00;2048816;70;20149;-77
2023/07/17 03:48:06;;;;;;;;;;;;;;;22.72;65.68;92987.31;2048154;70;20050;-77
2023/07/17 03:50:35;;;;;;;;;;;;;;;22.73;65.47;92986.63;2050510;70;20051;-77
2023/07/17 03:53:02;;;;;;;;;;;;;;;22.62;66.31;92996.44;2054585;70;20073;-77
2023/07/17 03:55:28;;;;;;;;;;;;;;;22.69;65.85;93009.50;2051398;70;20067;-77
2023/07/17 03:57:54;;;;;;;;;;;;;;;22.64;66.99;93010.84;2052745;70;20092;-77
2023/07/17 04:00:19;;;;;;;;;;;;;;;22.64;67.29;93012.97;2054553;70;20051;-77
2023/07/17 04:02:47;;;;;;;;;;;;;;;22.44;68.15;93019.00;2053336;69;20138;-77
2023/07/17 04:05:25;;;;;;;;;;;;;;;22.27;68.23;93024.41;2048665;70;20055;-78
2023/07/17 04:07:51;;;;;;;;;;;;;;;22.43;67.15;93012.53;2048093;70;20156;-78
2023/07/17 04:10:17;;;;;;;;;;;;;;;22.49;67.07;93011.94;2050941;70;20498;-78
2023/07/17 04:12:42;;;;;;;;;;;;;;;22.58;67.18;93022.16;2048962;70;20055;-78
2023/07/17 04:15:09;;;;;;;;;;;;;;;22.58;67.02;93022.16;2052273;70;20054;-78
2023/07/17 04:17:35;;;;;;;;;;;;;;;22.68;66.97;93027.38;2051250;70;20054;-78
2023/07/17 04:20:00;;;;;;;;;;;;;;;22.73;66.80;93034.69;2052076;70;20051;-78
2023/07/17 04:22:28;;;;;;;;;;;;;;;22.58;67.94;93030.78;2053418;70;20054;-79
2023/07/17 04:24:53;;;;;;;;;;;;;;;22.68;67.37;93036.00;2048807;70;20046;-79
2023/07/17 04:27:19;;;;;;;;;;;;;;;22.66;68.00;93036.69;2051827;70;20442;-79
2023/07/17 04:29:46;;;;;;;;;;;;;;;22.76;67.91;93042.63;2048991;70;20110;-78
2023/07/17 04:32:12;;;;;;;;;;;;;;;22.86;66.22;93047.13;2048898;70;20015;-77
2023/07/17 04:34:37;;;;;;;;;;;;;;;22.83;67.39;93049.25;2051266;70;20073;-77
2023/07/17 04:37:03;;;;;;;;;;;;;;;22.93;65.71;93055.22;2049780;70;20093;-77
2023/07/17 04:39:29;;;;;;;;;;;;;;;23.06;66.63;93056.91;2052512;70;20459;-80
2023/07/17 04:41:56;;;;;;;;;;;;;;;23.00;66.74;93050.31;2051708;70;20467;-78
2023/07/17 04:44:22;;;;;;;;;;;;;;;23.03;65.84;93061.16;2051841;70;20070;-78
2023/07/17 04:46:48;;;;;;;;;;;;;;;22.86;66.40;93059.34;2050490;70;20497;-78
2023/07/17 04:49:13;;;;;;;;;;;;;;;22.79;65.82;93061.38;2048548;70;20098;-77
2023/07/17 04:51:39;;;;;;;;;;;;;;;23.06;65.33;93077.03;2050091;70;20094;-78
2023/07/17 04:54:06;;;;;;;;;;;;;;;23.21;65.80;93085.91;2053459;70;20501;-78
2023/07/17 04:56:31;;;;;;;;;;;;;;;23.10;66.30;93095.75;2045429;70;20153;-80
2023/07/17 04:58:59;;;;;;;;;;;;;;;22.67;67.94;93107.00;2048661;70;20050;-77
2023/07/17 05:01:26;;;;;;;;;;;;;;;22.76;67.41;93111.50;2049808;70;20078;-79
2023/07/17 05:03:52;;;;;;;;;;;;;;;22.98;66.58;93104.84;2051631;70;20043;-79
2023/07/17 05:06:18;;;;;;;;;;;;;;;22.90;65.91;93101.78;2048471;70;20502;-77
2023/07/17 05:08:43;;;;;;;;;;;;;;;22.91;64.71;93094.63;2048583;70;20063;-78
2023/07/17 05:11:09;;;;;;;;;;;;;;;22.77;65.19;93086.41;2051202;70;20089;-78
2023/07/17 05:13:42;;;;;;;;;;;;;;;21.91;69.75;93089.44;2048626;70;20053;-79
2023/07/17 05:16:09;;;;;;;;;;;;;;;22.48;67.56;93090.81;2050903;70;20557;-77
2023/07/17 05:18:37;;;;;;;;;;;;;;;22.51;67.12;93089.44;2047497;70;20108;-80
2023/07/17 05:21:03;;;;;;;;;;;;;;;22.87;65.64;93094.53;2048219;70;20058;-79
2023/07/17 05:23:30;;;;;;;;;;;;;;;23.04;65.02;93090.59;2048103;70;20066;-77
2023/07/17 05:26:00;;;;;;;;;;;;;;;23.10;66.61;93084.28;2047703;70;20090;-78
2023/07/17 05:28:28;;;;;;;;;;;;;;;23.02;67.70;93102.06;2050866;70;20083;-78
2023/07/17 05:30:56;;;;;;;;;;;;;;;23.04;67.63;93091.31;2048850;70;20575;-79
2023/07/17 05:33:22;;;;;;;;;;;;;;;23.14;67.76;93093.69;2052672;70;20501;-78
2023/07/17 05:35:49;;;;;;;;;;;;;;;23.19;65.21;93094.50;2048605;70;20149;-78
2023/07/17 05:38:16;;;;;;;;;;;;;;;23.17;66.10;93108.81;2047464;70;20058;-80
2023/07/17 05:40:44;;;;;;;;;;;;;;;23.30;65.16;93119.13;2048272;70;20019;-78
2023/07/17 05:43:10;;;;;;;;;;;;;;;23.37;65.37;93117.84;2048041;70;20125;-80
2023/07/17 05:45:40;;;;;;;;;;;;;;;23.57;63.77;93129.00;2045666;70;20091;-78
2023/07/17 05:48:05;;;;;;;;;;;;;;;23.57;62.83;93129.00;2050181;70;20051;-77
2023/07/17 05:50:31;;;;;;;;;;;;;;;23.41;63.91;93123.66;2047064;70;20067;-79
2023/07/17 05:52:57;;;;;;;;;;;;;;;23.62;63.96;93118.31;2048130;70;20432;-82
2023/07/17 05:55:23;;;;;;;;;;;;;;;23.45;64.91;93125.88;2048225;70;20063;-78
2023/07/17 05:57:49;;;;;;;;;;;;;;;23.84;64.20;93130.25;2050454;70;20141;-82
2023/07/17 06:00:15;;;;;;;;;;;;;;;23.99;64.02;93134.09;2048703;70;20054;-78
2023/07/17 06:02:43;;;;;;;;;;;;;;;24.10;63.24;93132.88;2047792;70;20126;-79
2023/07/17 06:05:09;;;;;;;;;;;;;;;24.11;63.74;93124.97;2048360;70;20515;-79
2023/07/17 06:07:35;;;;;;;;;;;;;;;24.07;63.73;93122.75;2047995;70;20047;-78
2023/07/17 06:10:00;;;;;;;;;;;;;;;23.94;62.67;93118.19;2047775;70;20422;-79
2023/07/17 06:12:26;;;;;;;;;;;;;;;23.87;62.63;93114.50;2048733;70;20047;-81
2023/07/17 06:14:51;;;;;;;;;;;;;;;23.97;63.00;93128.31;2047902;70;20487;-81
2023/07/17 06:17:19;;;;;;;;;;;;;;;23.96;65.67;93126.84;2048617;70;20125;-78
2023/07/17 06:19:44;;;;;;;;;;;;;;;23.97;65.61;93131.19;2050650;70;20062;-79
2023/07/17 06:22:10;;;;;;;;;;;;;;;23.70;63.96;93130.72;2052084;70;20118;-78
2023/07/17 06:24:35;;;;;;;;;;;;;;;23.90;62.72;93133.22;2048678;70;20051;-81
2023/07/17 06:27:01;;;;;;;;;;;;;;;24.12;62.48;93129.28;2050909;70;20122;-80
2023/07/17 06:29:26;;;;;;;;;;;;;;;24.24;64.04;93138.13;2051959;70;20059;-78
2023/07/17 06:31:52;;;;;;;;;;;;;;;24.37;62.60;93136.91;2051501;70;20098;-79
2023/07/17 06:34:18;;;;;;;;;;;;;;;24.17;61.64;93145.91;2047216;70;20107;-79
2023/07/17 06:36:44;;;;;;;;;;;;;;;24.43;62.19;93139.91;2050929;70;20050;-77
2023/07/17 06:39:13;;;;;;;;;;;;;;;24.54;63.56;93141.50;2048265;70;20118;-76
2023/07/17 06:41:39;;;;;;;;;;;;;;;24.72;63.17;93143.94;2050289;70;20057;-79
2023/07/17 06:44:04;;;;;;;;;;;;;;;24.61;60.28;93144.50;2050433;70;20058;-80
2023/07/17 06:46:29;;;;;;;;;;;;;;;24.69;61.86;93139.56;2051825;70;20383;-80
2023/07/17 06:48:55;;;;;;;;;;;;;;;24.83;61.87;93139.81;2051576;70;20051;-80
2023/07/17 06:51:22;;;;;;;;;;;;;;;25.02;62.33;93134.31;2051307;70;20062;-79
2023/07/17 06:53:47;;;;;;;;;;;;;;;24.53;60.52;93136.47;2047939;70;20070;-80
2023/07/17 06:56:13;;;;;;;;;;;;;;;24.04;61.39;93139.22;2048094;70;20505;-80
2023/07/17 06:58:40;;;;;;;;;;;;;;;24.32;60.73;93138.25;2051505;70;20059;-79
2023/07/17 07:01:06;;;;;;;;;;;;;;;23.90;62.10;93141.13;2051891;70;20422;-80
2023/07/17 07:03:31;;;;;;;;;;;;;;;24.08;62.53;93152.94;2051691;70;20077;-81
2023/07/17 07:05:58;;;;;;;;;;;;;;;24.25;61.29;93151.81;2051757;70;20129;-81
2023/07/17 07:08:24;;;;;;;;;;;;;;;24.04;61.75;93156.47;2051933;70;20086;-81
2023/07/17 07:10:51;;;;;;;;;;;;;;;24.02;61.79;93153.56;2048586;70;20085;-81
2023/07/17 07:13:16;;;;;;;;;;;;;;;24.25;60.96;93148.94;2051986;70;20147;-81
2023/07/17 07:15:42;;;;;;;;;;;;;;;24.26;61.25;93155.41;2052280;70;20051;-79
2023/07/17 07:18:07;;;;;;;;;;;;;;;24.71;60.25;93153.28;2052422;70;20039;-78
2023/07/17 07:20:32;;;;;;;;;;;;;;;24.74;59.86;93146.88;2052342;70;20426;-80
2023/07/17 07:22:58;;;;;;;;;;;;;;;24.59;59.61;93151.66;2052471;70;20047;-79
2023/07/17 07:25:23;;;;;;;;;;;;;;;25.09;58.49;93138.72;2052268;70;20055;-81
2023/07/17 07:27:49;;;;;;;;;;;;;;;25.33;57.02;93141.91;2052298;70;20071;-80
2023/07/17 07:30:14;;;;;;;;;;;;;;;25.71;57.00;93135.19;2052214;70;20500;-80
2023/07/17 07:32:40;;;;;;;;;;;;;;;26.03;56.73;93137.69;2049068;70;20049;-80
2023/07/17 07:35:06;;;;;;;;;;;;;;;25.83;57.00;93140.34;2052335;70;20573;-80
2023/07/17 07:37:32;;;;;;;;;;;;;;;26.13;56.68;93134.19;2052366;70;20051;-81
2023/07/17 07:39:57;;;;;;;;;;;;;;;26.06;56.52;93133.38;2052447;70;20026;-78
2023/07/17 07:42:22;;;;;;;;;;;;;;;26.43;56.19;93127.97;2052420;70;20062;-80
2023/07/17 07:44:50;;;;;;;;;;;;;;;26.33;55.58;93128.59;2052174;70;20067;-81
2023/07/17 07:47:16;;;;;;;;;;;;;;;25.83;57.55;93129.56;2052642;70;20622;-80
2023/07/17 07:49:41;;;;;;;;;;;;;;;25.49;58.35;93134.91;2052362;70;20146;-81
2023/07/17 07:52:07;;;;;;;;;;;;;;;25.35;57.61;93126.81;2052619;70;20070;-81
2023/07/17 07:54:34;;;;;;;;;;;;;;;25.57;57.81;93132.13;2052446;70;20051;-81
2023/07/17 07:57:00;;;;;;;;;;;;;;;26.03;56.21;93126.16;2052704;70;20501;-81
2023/07/17 07:59:28;;;;;;;;;;;;;;;26.02;54.38;93127.56;2052564;70;20161;-81
2023/07/17 08:01:53;;;;;;;;;;;;;;;26.41;54.18;93125.06;2048921;70;20054;-81
2023/07/17 08:04:19;;;;;;;;;;;;;;;26.54;54.70;93123.75;2052530;70;20063;-80
2023/07/17 08:06:44;;;;;;;;;;;;;;;26.77;53.54;93126.78;2052625;70;20131;-81
2023/07/17 08:09:10;;;;;;;;;;;;;;;26.66;53.00;93125.97;2052813;70;20050;-80
2023/07/17 08:11:36;;;;;;;;;;;;;;;27.32;54.18;93116.31;2049236;70;20019;-78
2023/07/17 08:14:01;;;;;;;;;;;;;;;27.56;52.53;93127.25;2052706;70;20054;-80
2023/07/17 08:16:27;;;;;;;;;;;;;;;27.79;52.02;93127.34;2052170;70;20475;-80
2023/07/17 08:18:54;;;;;;;;;;;;;;;28.39;49.38;93128.94;2052014;70;20051;-79
2023/07/17 08:21:19;;;;;;;;;;;;;;;29.01;50.08;93123.88;2052408;70;20066;-78
2023/07/17 08:23:46;;;;;;;;;;;;;;;29.26;48.70;93125.25;2052307;70;20051;-79
2023/07/17 08:26:11;;;;;;;;;;;;;;;29.71;47.86;93122.22;2052186;70;20050;-78
2023/07/17 08:28:37;;;;;;;;;;;;;;;29.26;48.37;93121.63;2052361;70;20148;-79
2023/07/17 08:31:03;;;;;;;;;;;;;;;29.61;48.71;93120.09;2048993;70;20054;-79
2023/07/17 08:33:29;;;;;;;;;;;;;;;29.97;48.96;93114.84;2052123;70;20050;-80
2023/07/17 08:35:54;;;;;;;;;;;;;;;30.24;47.24;93121.22;2052347;70;20051;-80
2023/07/17 08:38:20;;;;;;;;;;;;;;;30.29;47.35;93113.94;2052338;70;20054;-78
2023/07/17 08:40:49;;;;;;;;;;;;;;;29.56;47.28;93115.75;2052353;70;20097;-80
2023/07/17 08:43:15;;;;;;;;;;;;;;;30.39;47.44;93119.69;2052468;70;20102;-80
2023/07/17 08:45:40;;;;;;;;;;;;;;;30.62;47.13;93120.22;2052408;70;20251;-79
2023/07/17 08:48:06;;;;;;;;;;;;;;;30.88;47.27;93122.94;2052087;70;20059;-80
2023/07/17 08:50:32;;;;;;;;;;;;;;;31.47;46.06;93126.72;2052454;70;20105;-79
2023/07/17 08:52:58;;;;;;;;;;;;;;;31.88;46.31;93121.16;2052299;70;20057;-79
2023/07/17 08:55:23;;;;;;;;;;;;;;;31.85;44.86;93128.50;2052323;70;20396;-80
2023/07/17 08:57:52;;;;;;;;;;;;;;;32.00;44.22;93132.66;2052239;70;20141;-80
2023/07/17 09:00:19;;;;;;;;;;;;;;;32.01;44.04;93124.63;2052140;70;20058;-81
2023/07/17 09:02:44;;;;;;;;;;;;;;;31.91;43.29;93121.88;2052055;70;20055;-79
2023/07/17 09:05:10;;;;;;;;;;;;;;;32.18;41.76;93108.38;2051865;70;20613;-80
2023/07/17 09:07:35;;;;;;;;;;;;;;;32.22;42.82;93114.16;2052184;70;20528;-81
2023/07/17 09:10:23;;;;;;;;;;;;;;;32.85;42.11;93112.47;2051854;70;20047;-82
2023/07/17 09:12:49;;;;;;;;;;;;;;;32.43;41.26;93097.13;2052374;70;20055;-81
2023/07/17 09:15:18;;;;;;;;;;;;;;;31.92;41.09;93112.38;2052220;70;20090;-82
2023/07/17 09:17:43;;;;;;;;;;;;;;;33.23;39.98;93102.34;2052282;70;20054;-80
2023/07/17 09:20:10;;;;;;;;;;;;;;;33.33;40.56;93108.00;2052125;70;20015;-80
2023/07/17 09:22:39;;;;;;;;;;;;;;;33.61;38.66;93100.91;2052473;70;20145;-79
2023/07/17 09:25:05;;;;;;;;;;;;;;;33.80;38.32;93103.47;2051939;70;20138;-79
2023/07/17 09:27:41;;;;;;;;;;;;;;;33.61;39.05;93091.44;2052282;70;20145;-80
2023/07/17 09:30:11;;;;;;;;;;;;;;;34.31;37.24;93093.63;2052076;70;20054;-80
2023/07/17 09:32:36;;;;;;;;;;;;;;;34.63;37.72;93089.25;2052065;70;20059;-79
2023/07/17 09:35:04;;;;;;;;;;;;;;;33.43;37.78;93088.84;2052053;70;20058;-79
2023/07/17 09:37:32;;;;;;;;;;;;;;;33.76;38.25;93088.94;2052235;69;20133;-79
2023/07/17 09:39:58;;;;;;;;;;;;;;;34.83;38.22;93074.13;2052237;70;20542;-79
2023/07/17 09:42:24;;;;;;;;;;;;;;;34.25;37.44;93076.94;2052152;70;20094;-79
2023/07/17 09:44:53;;;;;;;;;;;;;;;34.44;37.41;93070.69;2052183;70;20157;-79
2023/07/17 09:47:20;;;;;;;;;;;;;;;35.72;35.14;93070.34;2051986;70;20068;-81
2023/07/17 09:49:52;;;;;;;;;;;;;;;35.99;35.95;93067.38;2052332;70;20047;-80
2023/07/17 09:52:18;;;;;;;;;;;;;;;35.08;35.04;93062.53;2049037;70;20172;-81
2023/07/17 09:54:44;;;;;;;;;;;;;;;35.88;33.72;93057.44;2052247;70;20074;-81
2023/07/17 09:57:10;;;;;;;;;;;;;;;34.29;34.59;93061.53;2052290;70;20050;-81
2023/07/17 09:59:41;;;;;;;;;;;;;;;36.35;33.92;93059.69;2052302;70;20134;-81
2023/07/17 10:02:13;;;;;;;;;;;;;;;36.64;32.06;93055.88;2052389;70;20422;-81
2023/07/17 10:04:44;;;;;;;;;;;;;;;35.53;31.95;93048.94;2052155;70;20066;-82
2023/07/17 10:07:12;;;;;;;;;;;;;;;36.62;32.08;93047.16;2048386;70;20070;-79
2023/07/17 10:09:38;;;;;;;;;;;;;;;37.28;31.06;93048.59;2051897;70;20047;-78
2023/07/17 10:12:04;;;;;;;;;;;;;;;36.86;30.57;93046.31;2052195;70;20078;-78
2023/07/17 10:14:30;;;;;;;;;;;;;;;35.52;30.25;93038.72;2052278;70;20082;-79
2023/07/17 10:16:55;;;;;;;;;;;;;;;36.50;30.83;93029.94;2052143;70;20140;-76
2023/07/17 10:19:21;;;;;;;;;;;;;;;37.63;29.67;93039.31;2048861;70;20046;-79
2023/07/17 10:21:53;;;;;;;;;;;;;;;36.45;30.08;93031.56;2052186;70;20054;-79
2023/07/17 10:24:22;;;;;;;;;;;;;;;36.79;29.98;93030.44;2051838;70;20122;-79
2023/07/17 10:26:48;;;;;;;;;;;;;;;36.01;29.98;93031.44;2052290;70;20430;-80
2023/07/17 10:29:13;;;;;;;;;;;;;;;38.00;29.88;93029.84;2052334;70;20116;-81
2023/07/17 10:31:47;;;;;;;;;;;;;;;39.37;28.32;93036.84;2052308;70;20561;-81
2023/07/17 10:34:14;;;;;;;;;;;;;;;39.07;26.55;93023.41;2052049;70;20061;-81
2023/07/17 10:36:43;;;;;;;;;;;;;;;39.61;27.73;93026.19;2052283;70;20066;-81
2023/07/17 10:39:19;;;;;;;;;;;;;;;40.49;26.99;93009.66;2052404;70;20053;-81
2023/07/17 10:41:44;;;;;;;;;;;;;;;40.90;25.74;93008.41;2052081;70;20088;-79
2023/07/17 10:44:18;;;;;;;;;;;;;;;42.09;23.66;93014.81;2051932;70;20486;-81
2023/07/17 10:46:43;;;;;;;;;;;;;;;42.61;23.68;93013.44;2051869;70;20142;-81
2023/07/17 10:49:10;;;;;;;;;;;;;;;45.57;21.66;93006.97;2052369;70;20414;-81
2023/07/17 10:51:37;;;;;;;;;;;;;;;43.02;22.34;93002.22;2052343;70;20058;-81
2023/07/17 10:54:02;;;;;;;;;;;;;;;43.80;21.55;93004.97;2051882;70;20182;-79
2023/07/17 10:56:29;;;;;;;;;;;;;;;44.73;20.79;93008.84;2052784;70;20088;-78
2023/07/17 10:58:56;;;;;;;;;;;;;;;46.41;18.91;93004.78;2052699;70;20479;-79
2023/07/17 11:01:24;;;;;;;;;;;;;;;45.11;19.87;93003.31;2052742;70;20047;-79
2023/07/17 11:03:50;;;;;;;;;;;;;;;47.84;19.15;93012.09;2052059;70;20545;-80
2023/07/17 11:06:17;;;;;;;;;;;;;;;47.19;20.10;92996.16;2052606;70;20054;-79
2023/07/17 11:08:46;;;;;;;;;;;;;;;49.18;19.00;93008.88;2052711;70;20137;-81
2023/07/17 11:11:14;;;;;;;;;;;;;;;51.81;16.00;93001.38;2052027;70;20105;-81
2023/07/17 11:13:39;;;;;;;;;;;;;;;46.25;20.00;92997.75;2052386;70;20059;-81
2023/07/17 11:16:06;;;;;;;;;;;;;;;50.23;17.86;93001.47;2052364;70;20478;-81
2023/07/17 11:18:31;;;;;;;;;;;;;;;51.68;16.23;93009.41;2052370;70;20051;-81
2023/07/17 11:20:57;;;;;;;;;;;;;;;48.80;16.42;92995.53;2052293;70;20427;-80
2023/07/17 11:23:22;;;;;;;;;;;;;;;50.34;15.81;92987.72;2049137;70;20114;-80
2023/07/17 11:25:49;;;;;;;;;;;;;;;52.06;15.18;92987.78;2052373;70;20142;-80
2023/07/17 11:28:15;;;;;;;;;;;;;;;51.89;15.54;92999.94;2052288;70;20495;-80
2023/07/17 11:30:41;;;;;;;;;;;;;;;50.49;16.21;92989.44;2052345;70;20057;-81
2023/07/17 11:33:07;;;;;;;;;;;;;;;50.03;16.24;92976.97;2052564;70;20533;-80
2023/07/17 11:35:36;;;;;;;;;;;;;;;51.07;15.12;92973.75;2052211;70;20434;-78
2023/07/17 11:38:05;;;;;;;;;;;;;;;50.33;15.87;92973.63;2053966;70;20090;-79
2023/07/17 11:40:48;;;;;;;;;;;;;;;50.59;14.88;92964.59;2055531;70;20453;-79
2023/07/17 11:43:13;;;;;;;;;;;;;;;52.49;14.67;92965.66;2055515;70;20109;-80
2023/07/17 11:45:40;;;;;;;;;;;;;;;53.23;13.62;92965.16;2055471;69;20058;-80
2023/07/17 11:48:08;;;;;;;;;;;;;;;51.96;13.42;92958.03;2052336;70;20058;-81
2023/07/17 11:50:40;;;;;;;;;;;;;;;52.59;13.62;92957.97;2055502;69;20051;-81
2023/07/17 11:53:11;;;;;;;;;;;;;;;49.48;15.36;92957.78;2051983;70;20510;-81
2023/07/17 11:55:37;;;;;;;;;;;;;;;51.72;14.98;92961.03;2055675;70;20466;-81
2023/07/17 11:58:22;;;;;;;;;;;;;;;51.92;15.10;92952.41;2047467;70;20090;-84
2023/07/17 12:00:49;;;;;;;;;;;;;;;51.87;15.19;92955.09;2049688;70;20050;-81
2023/07/17 12:03:15;;;;;;;;;;;;;;;50.76;15.83;92949.53;2052255;70;20046;-82
2023/07/17 12:05:42;;;;;;;;;;;;;;;51.63;14.66;92949.09;2055437;70;20050;-83
2023/07/17 12:08:08;;;;;;;;;;;;;;;53.22;13.97;92954.06;2055536;70;20084;-81
2023/07/17 12:10:34;;;;;;;;;;;;;;;53.12;13.84;92961.78;2055864;69;20213;-81
2023/07/17 12:13:02;;;;;;;;;;;;;;;53.98;13.65;92956.09;2055710;69;20161;-84
2023/07/17 12:15:29;;;;;;;;;;;;;;;53.54;13.67;92953.06;2055516;69;20043;-78
2023/07/17 12:17:55;;;;;;;;;;;;;;;52.25;13.69;92944.72;2055366;69;20054;-79
2023/07/17 12:20:21;;;;;;;;;;;;;;;51.12;15.81;92935.81;2054931;69;20049;-79
2023/07/17 12:22:51;;;;;;;;;;;;;;;53.38;13.01;92939.66;2055133;70;20101;-79
2023/07/17 12:25:17;;;;;;;;;;;;;;;53.31;14.31;92936.59;2055313;70;20050;-80
2023/07/17 12:27:43;;;;;;;;;;;;;;;55.28;13.36;92945.31;2054681;70;20054;-79
2023/07/17 12:30:09;;;;;;;;;;;;;;;53.49;13.67;92931.72;2052062;70;20054;-82
2023/07/17 12:32:38;;;;;;;;;;;;;;;53.95;13.21;92930.84;2055513;69;20058;-81
2023/07/17 12:35:05;;;;;;;;;;;;;;;54.15;13.88;92928.69;2051721;70;20062;-81
2023/07/17 12:37:30;;;;;;;;;;;;;;;52.95;13.55;92925.91;2055235;69;20125;-80
2023/07/17 12:39:56;;;;;;;;;;;;;;;51.74;14.76;92924.84;2055711;69;20119;-81
2023/07/17 12:42:21;;;;;;;;;;;;;;;50.27;15.99;92923.28;2055502;69;20582;-81
2023/07/17 12:44:47;;;;;;;;;;;;;;;45.08;18.36;92897.38;2055619;69;20589;-81